TimeCDT,TemperatureF,Dew PointF,Humidity,Sea Level PressureIn,VisibilityMPH,Wind Direction,Wind SpeedMPH,Gust SpeedMPH,PrecipitationIn,Events,Conditions,WindDirDegrees,DateUTC
12:15 AM,46.4,26.6,46,30.25,10.0,NW,8.1,-,N/A,,Clear,310,2013-10-13 05:15:00
12:35 AM,46.4,26.6,46,30.26,10.0,NW,9.2,-,N/A,,Clear,310,2013-10-13 05:35:00
12:55 AM,42.8,28.4,57,30.27,10.0,WNW,8.1,-,N/A,,Clear,290,2013-10-13 05:55:00
1:15 AM,41.0,28.4,61,30.28,10.0,West,6.9,-,N/A,,Clear,260,2013-10-13 06:15:00
1:35 AM,41.0,28.4,61,30.30,10.0,West,9.2,-,N/A,,Clear,270,2013-10-13 06:35:00
1:55 AM,39.2,28.4,65,30.30,10.0,West,9.2,-,N/A,,Clear,270,2013-10-13 06:55:00
2:15 AM,41.0,28.4,61,30.31,10.0,West,9.2,-,N/A,,Clear,280,2013-10-13 07:15:00
2:35 AM,41.0,28.4,61,30.32,10.0,West,9.2,-,N/A,,Clear,280,2013-10-13 07:35:00
2:55 AM,39.2,28.4,65,30.32,10.0,WNW,8.1,-,N/A,,Clear,290,2013-10-13 07:55:00
3:15 AM,41.0,28.4,61,30.31,10.0,NW,8.1,-,N/A,,Clear,310,2013-10-13 08:15:00
3:35 AM,42.8,28.4,57,30.31,10.0,NNW,5.8,-,N/A,,Clear,330,2013-10-13 08:35:00
3:55 AM,41.0,28.4,61,30.31,10.0,North,5.8,-,N/A,,Clear,350,2013-10-13 08:55:00
4:15 AM,41.0,28.4,61,30.31,10.0,North,4.6,-,N/A,,Clear,10,2013-10-13 09:15:00
4:35 AM,41.0,28.4,61,30.32,10.0,North,4.6,-,N/A,,Clear,360,2013-10-13 09:35:00
4:55 AM,41.0,28.4,61,30.32,10.0,North,3.5,-,N/A,,Clear,350,2013-10-13 09:55:00
5:15 AM,41.0,26.6,57,30.33,10.0,NNW,3.5,-,N/A,,Clear,340,2013-10-13 10:15:00
5:35 AM,41.0,26.6,57,30.34,10.0,North,3.5,-,N/A,,Clear,350,2013-10-13 10:35:00
5:55 AM,39.2,26.6,61,30.34,10.0,North,3.5,-,N/A,,Clear,360,2013-10-13 10:55:00
6:15 AM,41.0,26.6,57,30.34,10.0,Calm,Calm,-,N/A,,Clear,0,2013-10-13 11:15:00
6:35 AM,41.0,26.6,57,30.35,10.0,North,3.5,-,N/A,,Clear,10,2013-10-13 11:35:00
6:55 AM,41.0,26.6,57,30.35,10.0,NNE,3.5,-,N/A,,Clear,20,2013-10-13 11:55:00
7:15 AM,41.0,26.6,57,30.36,10.0,North,-9999.0,-,N/A,,Clear,0,2013-10-13 12:15:00
7:35 AM,42.8,26.6,53,30.37,10.0,North,-9999.0,-,N/A,,Clear,0,2013-10-13 12:35:00
7:55 AM,41.0,26.6,57,30.38,10.0,Calm,Calm,-,N/A,,Clear,0,2013-10-13 12:55:00
8:15 AM,42.8,28.4,57,30.38,10.0,NNE,3.5,-,N/A,,Clear,30,2013-10-13 13:15:00
8:35 AM,42.8,32.0,66,30.39,10.0,Calm,Calm,-,N/A,,Clear,0,2013-10-13 13:35:00
8:55 AM,44.6,35.6,71,30.39,10.0,Calm,Calm,-,N/A,,Clear,0,2013-10-13 13:55:00
9:15 AM,48.2,37.4,66,30.40,10.0,Calm,Calm,-,N/A,,Clear,0,2013-10-13 14:15:00
9:35 AM,50.0,33.8,54,30.41,10.0,East,3.5,-,N/A,,Clear,100,2013-10-13 14:35:00
9:55 AM,51.8,32.0,47,30.41,10.0,East,5.8,-,N/A,,Clear,100,2013-10-13 14:55:00
10:15 AM,53.6,30.2,41,30.41,10.0,SE,6.9,-,N/A,,Clear,130,2013-10-13 15:15:00
10:55 AM,57.2,30.2,36,30.41,10.0,SE,4.6,11.5,N/A,,Clear,130,2013-10-13 15:55:00
11:15 AM,57.2,28.4,33,30.41,10.0,ESE,8.1,-,N/A,,Clear,120,2013-10-13 16:15:00
11:35 AM,57.2,28.4,33,30.41,10.0,Variable,5.8,-,N/A,,Clear,0,2013-10-13 16:35:00
11:55 AM,59.0,28.4,31,30.41,10.0,Variable,5.8,-,N/A,,Clear,0,2013-10-13 16:55:00
12:15 PM,59.0,28.4,31,30.40,10.0,ENE,6.9,-,N/A,,Clear,70,2013-10-13 17:15:00
12:35 PM,59.0,28.4,31,30.40,10.0,SE,6.9,-,N/A,,Clear,140,2013-10-13 17:35:00
12:55 PM,60.8,28.4,29,30.39,10.0,ENE,9.2,-,N/A,,Clear,70,2013-10-13 17:55:00
1:15 PM,60.8,28.4,29,30.39,10.0,ESE,6.9,-,N/A,,Clear,110,2013-10-13 18:15:00
1:35 PM,62.6,28.4,27,30.38,10.0,Variable,5.8,-,N/A,,Clear,0,2013-10-13 18:35:00
1:55 PM,62.6,28.4,27,30.37,10.0,Variable,5.8,12.7,N/A,,Clear,0,2013-10-13 18:55:00
2:15 PM,62.6,28.4,27,30.37,10.0,Variable,6.9,-,N/A,,Clear,0,2013-10-13 19:15:00
2:35 PM,62.6,28.4,27,30.36,10.0,Variable,3.5,12.7,N/A,,Clear,0,2013-10-13 19:35:00
2:55 PM,62.6,28.4,27,30.35,10.0,Variable,5.8,12.7,N/A,,Clear,0,2013-10-13 19:55:00
3:15 PM,62.6,28.4,27,30.35,10.0,Variable,4.6,11.5,N/A,,Clear,0,2013-10-13 20:15:00
3:35 PM,64.4,28.4,26,30.34,10.0,SE,6.9,-,N/A,,Clear,130,2013-10-13 20:35:00
3:55 PM,64.4,28.4,26,30.34,10.0,South,11.5,-,N/A,,Clear,170,2013-10-13 20:55:00
4:15 PM,64.4,28.4,26,30.33,10.0,SE,8.1,-,N/A,,Clear,130,2013-10-13 21:15:00
4:35 PM,64.4,28.4,26,30.33,10.0,SSE,6.9,-,N/A,,Clear,150,2013-10-13 21:35:00
4:55 PM,64.4,30.2,28,30.33,10.0,Variable,5.8,-,N/A,,Clear,0,2013-10-13 21:55:00
5:15 PM,62.6,30.2,30,30.32,10.0,SSE,5.8,13.8,N/A,,Clear,150,2013-10-13 22:15:00
5:35 PM,62.6,30.2,30,30.32,10.0,ESE,6.9,-,N/A,,Clear,110,2013-10-13 22:35:00
5:55 PM,60.8,30.2,31,30.32,10.0,SE,5.8,-,N/A,,Clear,140,2013-10-13 22:55:00
6:15 PM,59.0,30.2,34,30.32,10.0,SE,4.6,-,N/A,,Clear,130,2013-10-13 23:15:00
6:35 PM,57.2,30.2,36,30.32,10.0,ESE,5.8,-,N/A,,Clear,120,2013-10-13 23:35:00
6:55 PM,53.6,30.2,41,30.32,10.0,East,3.5,-,N/A,,Clear,100,2013-10-13 23:55:00
7:15 PM,51.8,30.2,44,30.33,10.0,SE,5.8,-,N/A,,Clear,130,2013-10-14 00:15:00
7:35 PM,51.8,30.2,44,30.33,10.0,ESE,6.9,-,N/A,,Clear,120,2013-10-14 00:35:00
7:55 PM,50.0,30.2,47,30.33,10.0,ESE,6.9,-,N/A,,Clear,120,2013-10-14 00:55:00
8:15 PM,50.0,30.2,47,30.34,10.0,ESE,9.2,-,N/A,,Clear,120,2013-10-14 01:15:00
8:35 PM,50.0,32.0,50,30.34,10.0,ESE,8.1,-,N/A,,Clear,120,2013-10-14 01:35:00
8:55 PM,50.0,32.0,50,30.33,10.0,ESE,8.1,-,N/A,,Clear,120,2013-10-14 01:55:00
9:15 PM,48.2,32.0,54,30.33,10.0,SE,6.9,-,N/A,,Clear,130,2013-10-14 02:15:00
9:35 PM,46.4,32.0,57,30.34,10.0,SE,8.1,-,N/A,,Clear,130,2013-10-14 02:35:00
9:55 PM,46.4,32.0,57,30.33,10.0,SE,8.1,-,N/A,,Clear,130,2013-10-14 02:55:00
10:15 PM,46.4,32.0,57,30.33,10.0,SE,6.9,-,N/A,,Clear,130,2013-10-14 03:15:00
10:35 PM,46.4,32.0,57,30.33,10.0,SE,8.1,-,N/A,,Clear,130,2013-10-14 03:35:00
10:55 PM,46.4,32.0,57,30.33,10.0,SE,6.9,-,N/A,,Clear,130,2013-10-14 03:55:00
11:15 PM,44.6,32.0,61,30.32,10.0,SE,8.1,-,N/A,,Clear,130,2013-10-14 04:15:00
11:35 PM,44.6,32.0,61,30.32,10.0,SE,8.1,-,N/A,,Clear,130,2013-10-14 04:35:00
11:55 PM,44.6,32.0,61,30.32,10.0,SE,6.9,-,N/A,,Clear,130,2013-10-14 04:55:00